Memphis, Texas
Current Conditions -  °F | °C
As of 1:53 PM on Friday 19 Dec 2014 (Local Time) from KCDS Reporting Station
Overcast Overcast  
Wind Chill: 42°   Ceiling: 1100
Heat Index: 42°   Visibility: 10mi
Dew Point: 37°   Wind: 3mph
Humidity: 82%   Direction: 270°W
Pressure: 30.18"   Gusts: NA
Location:  34.72°N, 100.53°W
Report Text: KCDS 191953Z AUTO 27003KT 10SM OVC011 06/03 A3018 RMK AO2 SLP223 T00560028
Loading
Personal Weather Stations






























Interactive Weather Map New forecast layout! Learn more

10-Day Weather Forecast

Advertisements
Track Severe Weather on mobile